Time;durP1;ratioP1;P1;durP2;ratioP2;P2;SDS_P1;SDS_P2;PMS_P1;PMS_P2;Temp;Humidity;BMP_temperature;BMP_pressure;BME280_temperature;BME280_humidity;BME280_pressure;Samples;Min_cycle;Max_cycle;Signal;HPM_P1;HPM_P2
2021/08/28 00:01:12;;;;;;;3.87;1.10;;;;;;;;;;5009559;28;20475;-76
2021/08/28 00:03:38;;;;;;;1.10;1.00;;;;;;;;;;5009614;28;20456;-78
2021/08/28 00:06:04;;;;;;;0.80;0.60;;;;;;;;;;5019754;28;20486;-77
2021/08/28 00:08:30;;;;;;;1.77;0.90;;;;;;;;;;5012971;28;20446;-77
2021/08/28 00:10:56;;;;;;;0.80;0.65;;;;;;;;;;5019241;28;20551;-77
2021/08/28 00:13:22;;;;;;;0.95;0.80;;;;;;;;;;5011448;28;20238;-77
2021/08/28 00:15:49;;;;;;;1.17;0.80;;;;;;;;;;5014544;28;20187;-77
2021/08/28 00:18:15;;;;;;;1.27;1.17;;;;;;;;;;5009048;28;20434;-75
2021/08/28 00:20:41;;;;;;;0.80;0.60;;;;;;;;;;5020958;28;20191;-76
2021/08/28 00:23:08;;;;;;;1.40;1.20;;;;;;;;;;5024125;28;20206;-76
2021/08/28 00:25:34;;;;;;;0.90;0.80;;;;;;;;;;5016438;28;20272;-76
2021/08/28 00:28:00;;;;;;;0.95;0.85;;;;;;;;;;5016332;28;20209;-77
2021/08/28 00:30:26;;;;;;;1.23;1.13;;;;;;;;;;5021259;28;20248;-76
2021/08/28 00:32:52;;;;;;;0.80;0.60;;;;;;;;;;5008262;28;20191;-77
2021/08/28 00:35:19;;;;;;;0.80;0.80;;;;;;;;;;5022367;28;20187;-77
2021/08/28 00:37:45;;;;;;;0.80;0.63;;;;;;;;;;5023792;28;20567;-78
2021/08/28 00:40:11;;;;;;;1.30;0.90;;;;;;;;;;5023079;28;20676;-77
2021/08/28 00:42:47;;;;;;;2.65;1.95;;;;;;;;;;5014053;22;20505;-76
2021/08/28 00:45:14;;;;;;;1.00;0.82;;;;;;;;;;4931858;28;20189;-77
2021/08/28 00:47:40;;;;;;;1.00;0.90;;;;;;;;;;4934842;29;20661;-76
2021/08/28 00:50:07;;;;;;;1.25;1.15;;;;;;;;;;4981310;28;20232;-76
2021/08/28 00:52:33;;;;;;;0.80;0.60;;;;;;;;;;4978725;28;20200;-76
2021/08/28 00:54:59;;;;;;;0.80;0.60;;;;;;;;;;4976782;28;20283;-77
2021/08/28 00:57:25;;;;;;;0.90;0.80;;;;;;;;;;4962604;28;20317;-76
2021/08/28 00:59:51;;;;;;;0.80;0.60;;;;;;;;;;4931159;29;20225;-77
2021/08/28 01:02:17;;;;;;;0.80;0.73;;;;;;;;;;4926591;29;20275;-77
2021/08/28 01:04:50;;;;;;;0.80;0.60;;;;;;;;;;4948541;28;20827;-76
2021/08/28 01:07:27;;;;;;;0.90;0.70;;;;;;;;;;4978072;28;20591;-77
2021/08/28 01:09:55;;;;;;;1.20;1.10;;;;;;;;;;4971197;28;20268;-76
2021/08/28 01:12:29;;;;;;;1.75;1.02;;;;;;;;;;4931001;29;20260;-76
2021/08/28 01:14:58;;;;;;;1.00;0.90;;;;;;;;;;4926703;28;20230;-76
2021/08/28 01:17:26;;;;;;;0.80;0.70;;;;;;;;;;4953384;28;20675;-75
2021/08/28 01:20:02;;;;;;;1.10;0.90;;;;;;;;;;4947185;28;20191;-76
2021/08/28 01:22:28;;;;;;;0.80;0.70;;;;;;;;;;4943234;28;20873;-76
2021/08/28 01:24:55;;;;;;;0.80;0.60;;;;;;;;;;4966055;28;20241;-76
2021/08/28 01:27:39;;;;;;;0.80;0.70;;;;;;;;;;4927206;28;20210;-76
2021/08/28 01:30:06;;;;;;;1.35;0.70;;;;;;;;;;4952520;28;20225;-76
2021/08/28 01:32:32;;;;;;;1.63;1.13;;;;;;;;;;4946860;28;20301;-76
2021/08/28 01:34:59;;;;;;;1.48;0.90;;;;;;;;;;4920943;28;20182;-76
2021/08/28 01:37:25;;;;;;;2.55;0.80;;;;;;;;;;4969954;28;20213;-76
2021/08/28 01:39:51;;;;;;;0.93;0.82;;;;;;;;;;4943095;28;20186;-76
2021/08/28 01:42:18;;;;;;;1.08;0.98;;;;;;;;;;4962325;28;20609;-76
2021/08/28 01:44:47;;;;;;;1.40;0.93;;;;;;;;;;4926176;29;20206;-76
2021/08/28 01:47:15;;;;;;;1.38;1.27;;;;;;;;;;4923929;28;20203;-76
2021/08/28 01:49:42;;;;;;;0.90;0.70;;;;;;;;;;4967065;28;20202;-76
2021/08/28 01:52:08;;;;;;;0.80;0.60;;;;;;;;;;4946588;28;20248;-76
2021/08/28 01:54:34;;;;;;;0.80;0.75;;;;;;;;;;4981353;28;20210;-76
2021/08/28 01:57:01;;;;;;;1.00;0.70;;;;;;;;;;4981893;28;20241;-76
2021/08/28 01:59:27;;;;;;;1.30;1.20;;;;;;;;;;4921817;29;20465;-77
2021/08/28 02:01:53;;;;;;;0.80;0.80;;;;;;;;;;4931611;28;20205;-76
2021/08/28 02:04:19;;;;;;;1.00;0.70;;;;;;;;;;4980894;28;20210;-76
2021/08/28 02:06:53;;;;;;;1.27;1.17;;;;;;;;;;4997839;28;20446;-76
2021/08/28 02:09:27;;;;;;;0.90;0.65;;;;;;;;;;4956003;28;20487;-76
2021/08/28 02:11:56;;;;;;;10.10;3.63;;;;;;;;;;4952601;28;20589;-76
2021/08/28 02:14:24;;;;;;;0.95;0.85;;;;;;;;;;4924521;29;20215;-75
2021/08/28 02:16:50;;;;;;;1.30;1.00;;;;;;;;;;4929769;28;20559;-76
2021/08/28 02:19:18;;;;;;;2.40;1.00;;;;;;;;;;4927567;28;20201;-76
2021/08/28 02:21:47;;;;;;;0.85;0.80;;;;;;;;;;4931192;28;20447;-76
2021/08/28 02:24:16;;;;;;;1.98;1.77;;;;;;;;;;4956551;28;20244;-76
2021/08/28 02:26:47;;;;;;;0.80;0.65;;;;;;;;;;4941796;28;20547;-76
2021/08/28 02:29:17;;;;;;;0.80;0.70;;;;;;;;;;4950591;28;20182;-76
2021/08/28 02:31:45;;;;;;;1.05;0.90;;;;;;;;;;4938666;28;20662;-76
2021/08/28 02:34:12;;;;;;;10.02;1.90;;;;;;;;;;4958625;28;20555;-76
2021/08/28 02:36:41;;;;;;;1.27;1.17;;;;;;;;;;4968288;28;20170;-76
2021/08/28 02:39:07;;;;;;;1.85;1.17;;;;;;;;;;4986767;28;20187;-76
2021/08/28 02:41:34;;;;;;;1.27;1.17;;;;;;;;;;4961525;28;20185;-76
2021/08/28 02:44:01;;;;;;;1.08;1.00;;;;;;;;;;4925953;29;20630;-76
2021/08/28 02:46:28;;;;;;;3.47;1.80;;;;;;;;;;4943295;28;20201;-76
2021/08/28 02:48:55;;;;;;;1.55;1.45;;;;;;;;;;4963144;28;20264;-76
2021/08/28 02:51:21;;;;;;;1.65;1.55;;;;;;;;;;4931388;28;20241;-76
2021/08/28 02:53:47;;;;;;;1.00;0.90;;;;;;;;;;4965945;28;20210;-76
2021/08/28 02:56:14;;;;;;;1.27;1.17;;;;;;;;;;4928978;29;20182;-76
2021/08/28 02:58:40;;;;;;;5.03;1.98;;;;;;;;;;4963487;28;20210;-76
2021/08/28 03:01:07;;;;;;;2.60;1.88;;;;;;;;;;4947809;28;20198;-76
2021/08/28 03:03:34;;;;;;;1.45;1.35;;;;;;;;;;4938947;28;20563;-76
2021/08/28 03:06:00;;;;;;;2.85;2.33;;;;;;;;;;4960672;28;20214;-76
2021/08/28 03:08:26;;;;;;;1.42;1.33;;;;;;;;;;4935458;28;20217;-76
2021/08/28 03:10:53;;;;;;;1.48;1.38;;;;;;;;;;4967463;28;20258;-76
2021/08/28 03:13:20;;;;;;;2.75;2.30;;;;;;;;;;4964915;28;20291;-76
2021/08/28 03:15:47;;;;;;;1.30;1.20;;;;;;;;;;4929619;28;20189;-76
2021/08/28 03:18:14;;;;;;;6.65;2.78;;;;;;;;;;4940128;28;20234;-76
2021/08/28 03:20:43;;;;;;;2.70;2.47;;;;;;;;;;4930818;28;20246;-76
2021/08/28 03:23:09;;;;;;;1.17;1.05;;;;;;;;;;4950613;28;20237;-76
2021/08/28 03:25:36;;;;;;;2.13;1.15;;;;;;;;;;4944091;28;20221;-76
2021/08/28 03:28:03;;;;;;;0.90;0.80;;;;;;;;;;4998528;28;20219;-76
2021/08/28 03:30:29;;;;;;;1.13;1.02;;;;;;;;;;4945989;28;20218;-77
2021/08/28 03:32:55;;;;;;;1.85;1.60;;;;;;;;;;4962516;28;20311;-77
2021/08/28 03:35:22;;;;;;;2.67;1.50;;;;;;;;;;4941018;28;20600;-76
2021/08/28 03:37:48;;;;;;;2.10;1.13;;;;;;;;;;4974467;28;20190;-76
2021/08/28 03:40:14;;;;;;;1.75;1.15;;;;;;;;;;4924413;29;20223;-76
2021/08/28 03:42:40;;;;;;;3.35;2.13;;;;;;;;;;4933319;28;20319;-76
2021/08/28 03:45:07;;;;;;;1.95;1.00;;;;;;;;;;4924540;28;20285;-75
2021/08/28 03:47:35;;;;;;;2.58;2.00;;;;;;;;;;4963077;28;20555;-76
2021/08/28 03:50:01;;;;;;;4.72;1.70;;;;;;;;;;4923439;28;20779;-76
2021/08/28 03:52:27;;;;;;;2.60;1.90;;;;;;;;;;4919305;29;20198;-76
2021/08/28 03:54:53;;;;;;;1.47;1.37;;;;;;;;;;4943888;28;20427;-76
2021/08/28 03:57:19;;;;;;;1.10;1.00;;;;;;;;;;4949440;28;20426;-76
2021/08/28 03:59:45;;;;;;;1.27;0.90;;;;;;;;;;4940378;28;20431;-76
2021/08/28 04:02:11;;;;;;;1.37;1.27;;;;;;;;;;4982835;28;20238;-77
2021/08/28 04:04:37;;;;;;;2.50;1.83;;;;;;;;;;4965981;28;20502;-76
2021/08/28 04:07:03;;;;;;;2.65;1.45;;;;;;;;;;4939022;28;20943;-76
2021/08/28 04:09:29;;;;;;;0.80;0.70;;;;;;;;;;4928509;29;20255;-76
2021/08/28 04:11:55;;;;;;;2.07;1.40;;;;;;;;;;4924503;29;20182;-76
2021/08/28 04:14:21;;;;;;;3.67;2.83;;;;;;;;;;4932611;28;20474;-76
2021/08/28 04:16:47;;;;;;;2.92;2.33;;;;;;;;;;4955022;28;20550;-75
2021/08/28 04:19:13;;;;;;;0.85;0.80;;;;;;;;;;4927464;29;20205;-76
2021/08/28 04:21:39;;;;;;;3.17;2.97;;;;;;;;;;4934933;28;20276;-76
2021/08/28 04:24:05;;;;;;;2.85;2.65;;;;;;;;;;4962600;28;20536;-76
2021/08/28 04:26:31;;;;;;;2.13;1.93;;;;;;;;;;4940757;28;20645;-76
2021/08/28 04:28:57;;;;;;;1.80;1.70;;;;;;;;;;4920280;28;20434;-72
2021/08/28 04:31:24;;;;;;;1.50;1.40;;;;;;;;;;4930713;28;20990;-72
2021/08/28 04:33:50;;;;;;;2.08;1.40;;;;;;;;;;4942782;28;20466;-73
2021/08/28 04:36:16;;;;;;;3.13;2.08;;;;;;;;;;4943930;28;20194;-72
2021/08/28 04:38:42;;;;;;;2.65;1.35;;;;;;;;;;4931731;28;20271;-72
2021/08/28 04:41:08;;;;;;;2.63;1.95;;;;;;;;;;4933249;28;20198;-72
2021/08/28 04:43:34;;;;;;;3.00;1.70;;;;;;;;;;4949832;28;20249;-73
2021/08/28 04:46:00;;;;;;;1.30;1.20;;;;;;;;;;4946238;28;20535;-72
2021/08/28 04:48:27;;;;;;;4.30;1.43;;;;;;;;;;4967192;28;20434;-72
2021/08/28 04:50:53;;;;;;;1.35;1.13;;;;;;;;;;4945013;28;20462;-72
2021/08/28 04:53:19;;;;;;;1.48;1.25;;;;;;;;;;4935172;28;20551;-72
2021/08/28 04:55:45;;;;;;;3.78;3.33;;;;;;;;;;4969099;28;20178;-72
2021/08/28 04:58:12;;;;;;;2.67;1.83;;;;;;;;;;4965632;28;20221;-72
2021/08/28 05:00:38;;;;;;;1.30;1.20;;;;;;;;;;4964202;28;20917;-73
2021/08/28 05:03:04;;;;;;;2.53;2.30;;;;;;;;;;4917782;29;20241;-72
2021/08/28 05:05:30;;;;;;;2.78;1.92;;;;;;;;;;4934414;29;20271;-72
2021/08/28 05:07:56;;;;;;;1.88;1.73;;;;;;;;;;4915502;28;20186;-73
2021/08/28 05:10:23;;;;;;;1.63;1.52;;;;;;;;;;4915119;29;20222;-73
2021/08/28 05:12:49;;;;;;;1.42;0.90;;;;;;;;;;4916371;28;20679;-72
2021/08/28 05:15:15;;;;;;;1.70;1.60;;;;;;;;;;4923268;29;20178;-73
2021/08/28 05:17:41;;;;;;;4.03;3.72;;;;;;;;;;4915773;29;20197;-73
2021/08/28 05:20:07;;;;;;;3.00;2.90;;;;;;;;;;4915518;29;20206;-73
2021/08/28 05:22:33;;;;;;;2.40;1.52;;;;;;;;;;4977536;28;20206;-73
2021/08/28 05:24:59;;;;;;;0.93;0.82;;;;;;;;;;5008547;28;20176;-73
2021/08/28 05:27:25;;;;;;;1.43;1.33;;;;;;;;;;4915277;29;20245;-73
2021/08/28 05:29:51;;;;;;;3.27;2.50;;;;;;;;;;4915582;29;20537;-73
2021/08/28 05:32:18;;;;;;;3.13;3.03;;;;;;;;;;4955432;28;20477;-73
2021/08/28 05:34:44;;;;;;;2.08;1.98;;;;;;;;;;5012509;28;20187;-72
2021/08/28 05:37:10;;;;;;;4.40;1.23;;;;;;;;;;4925357;28;20185;-72
2021/08/28 05:39:36;;;;;;;1.13;1.02;;;;;;;;;;4915868;29;20178;-72
2021/08/28 05:42:02;;;;;;;1.83;1.67;;;;;;;;;;4913301;29;20226;-73
2021/08/28 05:44:28;;;;;;;3.80;2.88;;;;;;;;;;4926925;29;20600;-73
2021/08/28 05:46:54;;;;;;;5.45;3.72;;;;;;;;;;4949555;28;20192;-73
2021/08/28 05:49:20;;;;;;;2.35;2.13;;;;;;;;;;4915439;29;20175;-73
2021/08/28 05:51:46;;;;;;;1.83;1.65;;;;;;;;;;4915477;29;20177;-72
2021/08/28 05:54:12;;;;;;;4.83;1.77;;;;;;;;;;4919729;29;20284;-72
2021/08/28 05:56:39;;;;;;;3.22;3.00;;;;;;;;;;4947219;28;20439;-73
2021/08/28 05:59:05;;;;;;;1.40;1.30;;;;;;;;;;4952443;28;20182;-73
2021/08/28 06:01:31;;;;;;;1.10;1.00;;;;;;;;;;4915594;28;20181;-72
2021/08/28 06:03:57;;;;;;;2.35;1.45;;;;;;;;;;4916133;28;20228;-72
2021/08/28 06:06:23;;;;;;;1.45;1.35;;;;;;;;;;4915331;29;20644;-72
2021/08/28 06:08:49;;;;;;;1.93;1.77;;;;;;;;;;4913578;29;20190;-72
2021/08/28 06:11:15;;;;;;;4.40;2.37;;;;;;;;;;4915510;29;20474;-72
2021/08/28 06:13:41;;;;;;;1.30;1.20;;;;;;;;;;4921933;29;20810;-72
2021/08/28 06:16:07;;;;;;;2.17;1.77;;;;;;;;;;4903626;28;20192;-72
2021/08/28 06:18:33;;;;;;;0.83;0.80;;;;;;;;;;4921730;28;20186;-72
2021/08/28 06:21:01;;;;;;;2.30;2.10;;;;;;;;;;4957896;28;20938;-73
2021/08/28 06:23:27;;;;;;;1.33;1.23;;;;;;;;;;4916028;29;20474;-72
2021/08/28 06:25:53;;;;;;;1.58;1.27;;;;;;;;;;4915949;29;20179;-72
2021/08/28 06:28:19;;;;;;;1.10;1.00;;;;;;;;;;4916150;28;20545;-72
2021/08/28 06:30:45;;;;;;;1.30;1.20;;;;;;;;;;4927152;29;20465;-72
2021/08/28 06:33:11;;;;;;;1.13;1.02;;;;;;;;;;4920745;28;21077;-72
2021/08/28 06:35:37;;;;;;;1.65;1.02;;;;;;;;;;4908510;29;20762;-73
2021/08/28 06:38:03;;;;;;;1.92;1.02;;;;;;;;;;4906022;29;20219;-73
2021/08/28 06:40:29;;;;;;;2.08;1.23;;;;;;;;;;4905429;29;20190;-72
2021/08/28 06:42:55;;;;;;;3.70;2.05;;;;;;;;;;4944124;23;20249;-70
2021/08/28 06:45:21;;;;;;;4.80;2.93;;;;;;;;;;4935563;28;20190;-71
2021/08/28 06:47:47;;;;;;;1.20;1.03;;;;;;;;;;4931852;28;20449;-72
2021/08/28 06:50:13;;;;;;;3.67;3.33;;;;;;;;;;4932154;28;20469;-72
2021/08/28 06:52:39;;;;;;;1.25;1.15;;;;;;;;;;4931601;28;20256;-72
2021/08/28 06:55:06;;;;;;;4.70;4.03;;;;;;;;;;4932624;28;20600;-72
2021/08/28 06:57:32;;;;;;;1.75;1.65;;;;;;;;;;4932141;28;20186;-72
2021/08/28 06:59:58;;;;;;;1.20;1.10;;;;;;;;;;4932191;28;20189;-72
2021/08/28 07:02:24;;;;;;;2.08;1.98;;;;;;;;;;4932261;28;20518;-70
2021/08/28 07:04:51;;;;;;;0.90;0.77;;;;;;;;;;4932477;28;20181;-72
2021/08/28 07:07:17;;;;;;;2.45;1.70;;;;;;;;;;4931921;28;20192;-72
2021/08/28 07:09:43;;;;;;;2.30;2.20;;;;;;;;;;4932316;28;20194;-72
2021/08/28 07:12:09;;;;;;;4.32;1.48;;;;;;;;;;4932306;28;20905;-72
2021/08/28 07:14:35;;;;;;;0.90;0.80;;;;;;;;;;4939706;28;20292;-72
2021/08/28 07:17:01;;;;;;;1.33;1.23;;;;;;;;;;4931216;28;20182;-72
2021/08/28 07:19:27;;;;;;;2.47;2.25;;;;;;;;;;4932148;28;20195;-71
2021/08/28 07:21:53;;;;;;;4.13;3.83;;;;;;;;;;4932131;28;20684;-71
2021/08/28 07:24:19;;;;;;;3.93;3.50;;;;;;;;;;4930833;28;20469;-71
2021/08/28 07:26:45;;;;;;;1.52;1.42;;;;;;;;;;4931707;28;20430;-71
2021/08/28 07:29:11;;;;;;;2.17;2.08;;;;;;;;;;4931920;28;20681;-71
2021/08/28 07:31:37;;;;;;;1.20;1.10;;;;;;;;;;4931577;28;20194;-71
2021/08/28 07:34:03;;;;;;;2.35;1.83;;;;;;;;;;4931643;28;20442;-71
2021/08/28 07:36:29;;;;;;;3.13;1.03;;;;;;;;;;4932724;28;20218;-72
2021/08/28 07:38:55;;;;;;;1.10;0.97;;;;;;;;;;4951007;28;20696;-72
2021/08/28 07:41:21;;;;;;;1.42;1.33;;;;;;;;;;4950292;28;20415;-71
2021/08/28 07:43:47;;;;;;;4.20;1.83;;;;;;;;;;4947097;28;20217;-72
2021/08/28 07:46:13;;;;;;;2.92;2.72;;;;;;;;;;4934937;28;20450;-71
2021/08/28 07:48:39;;;;;;;2.33;2.13;;;;;;;;;;4931797;28;20183;-72
2021/08/28 07:51:05;;;;;;;1.60;1.50;;;;;;;;;;4931733;28;20466;-71
2021/08/28 07:53:31;;;;;;;2.85;1.75;;;;;;;;;;4931236;28;20904;-72
2021/08/28 07:55:57;;;;;;;4.10;1.57;;;;;;;;;;4931509;28;20267;-71
2021/08/28 07:58:23;;;;;;;1.97;1.17;;;;;;;;;;4931853;28;20468;-72
2021/08/28 08:00:49;;;;;;;3.57;3.23;;;;;;;;;;4925164;29;20516;-72
2021/08/28 08:03:15;;;;;;;1.88;1.20;;;;;;;;;;4934742;28;20509;-72
2021/08/28 08:05:42;;;;;;;3.83;3.50;;;;;;;;;;4935055;28;20225;-71
2021/08/28 08:08:08;;;;;;;3.13;2.73;;;;;;;;;;4934911;28;20797;-70
2021/08/28 08:10:34;;;;;;;1.03;0.90;;;;;;;;;;4934871;28;20470;-69
2021/08/28 08:13:00;;;;;;;1.73;1.60;;;;;;;;;;4937886;28;20932;-69
2021/08/28 08:15:27;;;;;;;1.67;1.40;;;;;;;;;;4944562;29;20489;-71
2021/08/28 08:17:53;;;;;;;2.78;2.45;;;;;;;;;;4918194;28;20444;-71
2021/08/28 08:20:19;;;;;;;0.93;0.83;;;;;;;;;;4923569;28;20220;-71
2021/08/28 08:22:45;;;;;;;1.20;1.10;;;;;;;;;;4934683;28;20426;-71
2021/08/28 08:25:12;;;;;;;2.30;2.03;;;;;;;;;;4934879;28;20639;-71
2021/08/28 08:27:38;;;;;;;3.35;3.15;;;;;;;;;;4933824;28;20453;-71
2021/08/28 08:30:05;;;;;;;1.80;1.70;;;;;;;;;;4935090;28;20214;-71
2021/08/28 08:32:31;;;;;;;1.20;1.10;;;;;;;;;;4933792;28;20440;-71
2021/08/28 08:34:57;;;;;;;1.60;1.50;;;;;;;;;;4933270;28;20214;-69
2021/08/28 08:37:23;;;;;;;1.00;0.90;;;;;;;;;;4933065;28;20480;-71
2021/08/28 08:39:49;;;;;;;1.13;1.03;;;;;;;;;;4932259;28;20179;-71
2021/08/28 08:42:17;;;;;;;2.50;2.33;;;;;;;;;;4930566;28;20858;-70
2021/08/28 08:44:46;;;;;;;1.23;1.13;;;;;;;;;;4934291;28;20855;-71
2021/08/28 08:47:12;;;;;;;2.80;1.30;;;;;;;;;;4936485;28;20464;-69
2021/08/28 08:49:39;;;;;;;3.22;1.00;;;;;;;;;;4934507;28;20458;-69
2021/08/28 08:52:05;;;;;;;1.73;1.63;;;;;;;;;;4929404;28;20185;-71
2021/08/28 08:54:32;;;;;;;1.83;1.73;;;;;;;;;;4928966;28;21040;-71
2021/08/28 08:56:58;;;;;;;1.63;1.53;;;;;;;;;;4929739;28;20950;-72
2021/08/28 08:59:24;;;;;;;1.27;1.17;;;;;;;;;;4927354;28;20531;-71
2021/08/28 09:01:50;;;;;;;1.37;1.27;;;;;;;;;;4928784;28;20437;-71
2021/08/28 09:04:16;;;;;;;1.23;1.13;;;;;;;;;;4929660;28;20685;-71
2021/08/28 09:06:46;;;;;;;2.50;0.90;;;;;;;;;;4928199;29;20429;-71
2021/08/28 09:09:12;;;;;;;2.80;1.27;;;;;;;;;;4928266;28;20427;-71
2021/08/28 09:11:38;;;;;;;1.77;1.30;;;;;;;;;;4928899;28;20804;-70
2021/08/28 09:14:16;;;;;;;3.90;1.37;;;;;;;;;;4927405;28;20458;-69
2021/08/28 09:16:42;;;;;;;1.50;1.40;;;;;;;;;;4927841;28;20784;-70
2021/08/28 09:19:08;;;;;;;0.90;0.73;;;;;;;;;;4933322;28;20935;-71
2021/08/28 09:21:34;;;;;;;1.73;1.30;;;;;;;;;;4934078;29;20493;-72
2021/08/28 09:24:01;;;;;;;1.10;0.97;;;;;;;;;;4933467;28;20481;-71
2021/08/28 09:26:29;;;;;;;1.97;1.87;;;;;;;;;;4933643;28;20467;-71
2021/08/28 09:28:58;;;;;;;1.23;1.13;;;;;;;;;;4933468;28;20418;-69
2021/08/28 09:31:41;;;;;;;2.53;1.20;;;;;;;;;;4970164;28;20498;-71
2021/08/28 09:34:17;;;;;;;1.10;1.00;;;;;;;;;;4993868;28;20489;-70
2021/08/28 09:36:44;;;;;;;1.63;1.10;;;;;;;;;;4954501;28;20439;-70
2021/08/28 09:39:10;;;;;;;1.50;1.30;;;;;;;;;;4933638;28;20923;-70
2021/08/28 09:41:36;;;;;;;1.67;1.30;;;;;;;;;;4933639;28;20426;-70
2021/08/28 09:44:08;;;;;;;1.67;1.57;;;;;;;;;;4940105;28;20476;-70
2021/08/28 09:46:34;;;;;;;1.20;1.10;;;;;;;;;;4935672;29;20431;-72
2021/08/28 09:49:01;;;;;;;1.67;0.90;;;;;;;;;;4929832;29;20447;-71
2021/08/28 09:51:33;;;;;;;1.03;0.80;;;;;;;;;;4918595;28;20558;-71
2021/08/28 09:54:00;;;;;;;2.53;2.33;;;;;;;;;;4919086;28;20464;-72
2021/08/28 09:56:27;;;;;;;1.40;0.80;;;;;;;;;;4929868;28;20512;-71
2021/08/28 09:58:53;;;;;;;1.87;1.70;;;;;;;;;;4933279;28;20405;-71
2021/08/28 10:01:21;;;;;;;2.90;1.60;;;;;;;;;;4932832;29;20442;-70
2021/08/28 10:03:57;;;;;;;3.60;1.43;;;;;;;;;;4928562;28;20451;-71
2021/08/28 10:06:24;;;;;;;1.37;1.27;;;;;;;;;;4932273;29;20436;-71
2021/08/28 10:08:50;;;;;;;1.20;1.10;;;;;;;;;;4932888;28;20475;-71
2021/08/28 10:11:16;;;;;;;1.40;1.30;;;;;;;;;;4932145;28;20552;-71
2021/08/28 10:13:42;;;;;;;1.20;1.07;;;;;;;;;;4936316;28;20582;-71
2021/08/28 10:16:08;;;;;;;2.27;1.70;;;;;;;;;;4945678;28;20509;-68
2021/08/28 10:18:37;;;;;;;1.20;1.00;;;;;;;;;;4937407;29;20410;-69
2021/08/28 10:21:04;;;;;;;1.70;1.60;;;;;;;;;;4931424;29;20464;-68
2021/08/28 10:23:31;;;;;;;6.00;1.33;;;;;;;;;;4932209;28;20463;-69
2021/08/28 10:25:57;;;;;;;2.03;1.73;;;;;;;;;;4932877;28;20413;-69
2021/08/28 10:28:24;;;;;;;1.63;1.53;;;;;;;;;;4933328;28;20466;-68
2021/08/28 10:30:50;;;;;;;1.20;0.90;;;;;;;;;;4933193;28;20446;-70
2021/08/28 10:33:16;;;;;;;1.43;1.10;;;;;;;;;;4932434;28;20447;-69
2021/08/28 10:35:42;;;;;;;0.80;0.70;;;;;;;;;;4932817;28;20453;-68
2021/08/28 10:38:08;;;;;;;3.80;2.00;;;;;;;;;;4932762;28;20449;-68
2021/08/28 10:40:34;;;;;;;1.67;1.20;;;;;;;;;;4932597;28;20468;-68
2021/08/28 10:43:08;;;;;;;1.87;1.10;;;;;;;;;;4933175;28;20456;-69
2021/08/28 10:45:35;;;;;;;0.80;0.50;;;;;;;;;;4938984;29;20425;-68
2021/08/28 10:48:03;;;;;;;2.03;1.73;;;;;;;;;;4944252;28;20432;-68
2021/08/28 10:50:36;;;;;;;0.80;0.70;;;;;;;;;;4966473;28;20866;-70
2021/08/28 10:53:04;;;;;;;1.37;1.03;;;;;;;;;;4932514;29;20460;-68
2021/08/28 10:55:49;;;;;;;1.60;1.50;;;;;;;;;;4932519;28;20438;-68
2021/08/28 10:58:15;;;;;;;1.53;1.20;;;;;;;;;;4932525;29;20417;-69
2021/08/28 11:00:42;;;;;;;2.00;1.53;;;;;;;;;;4932004;28;20433;-70
2021/08/28 11:03:22;;;;;;;1.20;1.07;;;;;;;;;;4930995;28;20511;-69
2021/08/28 11:06:08;;;;;;;2.17;1.73;;;;;;;;;;4930019;29;20433;-69
2021/08/28 11:08:53;;;;;;;5.13;1.67;;;;;;;;;;4932328;29;20415;-70
2021/08/28 11:11:19;;;;;;;1.00;0.87;;;;;;;;;;4932391;28;20535;-70
2021/08/28 11:14:02;;;;;;;0.97;0.87;;;;;;;;;;4935320;28;20453;-71
2021/08/28 11:16:43;;;;;;;1.70;1.60;;;;;;;;;;4935349;29;21153;-70
2021/08/28 11:19:10;;;;;;;1.10;0.73;;;;;;;;;;4943288;28;21082;-70
2021/08/28 11:21:43;;;;;;;1.03;0.93;;;;;;;;;;4926019;28;20519;-71
2021/08/28 11:24:10;;;;;;;2.17;1.20;;;;;;;;;;4932186;28;20434;-70
2021/08/28 11:26:36;;;;;;;1.23;1.00;;;;;;;;;;4931872;28;20433;-70
2021/08/28 11:29:16;;;;;;;2.93;1.20;;;;;;;;;;4930001;28;20408;-70
2021/08/28 11:31:46;;;;;;;1.00;0.90;;;;;;;;;;4931838;29;20934;-71
2021/08/28 11:34:12;;;;;;;1.13;1.03;;;;;;;;;;4931322;28;20790;-70
2021/08/28 11:36:38;;;;;;;0.90;0.80;;;;;;;;;;4931310;28;20397;-70
2021/08/28 11:39:20;;;;;;;0.80;0.70;;;;;;;;;;4930653;28;20438;-70
2021/08/28 11:41:47;;;;;;;1.30;0.70;;;;;;;;;;4931763;29;20972;-70
2021/08/28 11:44:13;;;;;;;1.03;0.83;;;;;;;;;;4931674;28;21158;-70
2021/08/28 11:46:41;;;;;;;1.17;0.80;;;;;;;;;;4918174;28;20409;-71
2021/08/28 11:49:07;;;;;;;1.23;1.13;;;;;;;;;;4921957;28;20938;-70
2021/08/28 11:51:36;;;;;;;5.17;1.13;;;;;;;;;;4973078;28;20885;-70
2021/08/28 11:54:02;;;;;;;1.30;1.20;;;;;;;;;;4966720;28;20454;-71
2021/08/28 11:56:32;;;;;;;1.10;1.00;;;;;;;;;;4931454;28;20425;-70
2021/08/28 11:59:00;;;;;;;0.80;0.70;;;;;;;;;;4931477;29;20497;-70
2021/08/28 12:01:26;;;;;;;0.80;0.50;;;;;;;;;;4931070;29;20440;-70
2021/08/28 12:03:52;;;;;;;0.80;0.70;;;;;;;;;;4930353;28;20461;-69
2021/08/28 12:06:18;;;;;;;1.93;0.83;;;;;;;;;;4930901;28;20430;-70
2021/08/28 12:08:45;;;;;;;1.27;0.70;;;;;;;;;;4931647;28;20774;-69
2021/08/28 12:11:11;;;;;;;1.20;0.93;;;;;;;;;;4931472;28;20460;-73
2021/08/28 12:13:50;;;;;;;0.80;0.60;;;;;;;;;;4935554;28;20477;-70
2021/08/28 12:16:21;;;;;;;1.10;0.70;;;;;;;;;;4935842;29;20429;-70
2021/08/28 12:18:54;;;;;;;3.17;0.90;;;;;;;;;;4926986;28;20423;-70
2021/08/28 12:21:20;;;;;;;3.03;2.70;;;;;;;;;;4931657;29;20911;-69
2021/08/28 12:23:46;;;;;;;1.10;0.90;;;;;;;;;;4922641;28;20442;-70
2021/08/28 12:26:13;;;;;;;2.07;1.30;;;;;;;;;;4943007;28;20821;-69
2021/08/28 12:28:39;;;;;;;1.33;1.23;;;;;;;;;;4931303;29;20391;-70
2021/08/28 12:31:05;;;;;;;0.80;0.70;;;;;;;;;;4930055;28;20443;-70
2021/08/28 12:33:31;;;;;;;1.17;1.07;;;;;;;;;;4930442;28;20819;-70
2021/08/28 12:35:57;;;;;;;1.13;1.03;;;;;;;;;;4930029;28;20465;-71
2021/08/28 12:38:29;;;;;;;0.80;0.67;;;;;;;;;;4931372;28;20385;-70
2021/08/28 12:40:55;;;;;;;0.90;0.70;;;;;;;;;;4931352;29;20466;-69
2021/08/28 12:43:21;;;;;;;1.93;0.90;;;;;;;;;;4960966;23;20519;-72
2021/08/28 12:45:47;;;;;;;0.90;0.70;;;;;;;;;;4962400;28;20472;-72
2021/08/28 12:48:16;;;;;;;0.80;0.60;;;;;;;;;;4953352;29;20492;-72
2021/08/28 12:50:43;;;;;;;1.10;1.00;;;;;;;;;;4948521;28;20448;-71
2021/08/28 12:53:09;;;;;;;0.80;0.70;;;;;;;;;;4957280;28;20463;-71
2021/08/28 12:55:35;;;;;;;1.20;1.10;;;;;;;;;;4947072;28;20834;-73
2021/08/28 12:58:02;;;;;;;1.00;0.87;;;;;;;;;;4952502;29;20400;-72
2021/08/28 13:00:30;;;;;;;0.80;0.70;;;;;;;;;;4953429;29;20904;-73
2021/08/28 13:02:56;;;;;;;1.03;0.90;;;;;;;;;;4937192;29;20911;-72
2021/08/28 13:05:22;;;;;;;1.20;0.70;;;;;;;;;;4942840;29;20399;-73
2021/08/28 13:07:48;;;;;;;1.20;1.00;;;;;;;;;;4952074;28;20388;-73
2021/08/28 13:10:15;;;;;;;1.13;0.83;;;;;;;;;;4934300;29;20813;-72
2021/08/28 13:12:43;;;;;;;0.97;0.87;;;;;;;;;;4934146;29;20865;-72
2021/08/28 13:15:11;;;;;;;0.80;0.60;;;;;;;;;;4941004;29;20396;-71
2021/08/28 13:17:39;;;;;;;0.80;0.70;;;;;;;;;;4952908;29;20432;-72
2021/08/28 13:20:06;;;;;;;1.47;0.70;;;;;;;;;;4947985;28;20552;-72
2021/08/28 13:22:35;;;;;;;0.90;0.80;;;;;;;;;;4944510;28;20418;-72
2021/08/28 13:25:01;;;;;;;1.17;0.60;;;;;;;;;;4952596;28;20514;-73
2021/08/28 13:27:28;;;;;;;1.50;1.37;;;;;;;;;;4946681;29;20413;-73
2021/08/28 13:30:11;;;;;;;0.80;0.70;;;;;;;;;;4951570;29;20483;-72
2021/08/28 13:32:37;;;;;;;1.50;1.07;;;;;;;;;;4933762;29;20388;-73
2021/08/28 13:35:03;;;;;;;2.80;1.27;;;;;;;;;;4938564;28;20416;-72
2021/08/28 13:37:29;;;;;;;0.90;0.80;;;;;;;;;;4952348;29;20416;-72
2021/08/28 13:39:55;;;;;;;0.90;0.80;;;;;;;;;;4936515;29;20490;-72
2021/08/28 13:42:22;;;;;;;0.80;0.80;;;;;;;;;;4932925;28;20903;-73
2021/08/28 13:44:48;;;;;;;1.07;0.97;;;;;;;;;;4940269;28;20444;-71
2021/08/28 13:47:14;;;;;;;0.83;0.83;;;;;;;;;;4936167;29;20775;-71
2021/08/28 13:49:40;;;;;;;1.03;0.80;;;;;;;;;;4933762;29;20426;-72
2021/08/28 13:52:06;;;;;;;1.23;1.13;;;;;;;;;;4946122;28;20901;-71
2021/08/28 13:54:32;;;;;;;1.00;0.90;;;;;;;;;;4958682;28;20430;-71
2021/08/28 13:56:59;;;;;;;1.13;0.90;;;;;;;;;;4933332;29;20456;-72
2021/08/28 13:59:24;;;;;;;1.00;0.90;;;;;;;;;;4934239;29;20411;-72
2021/08/28 14:01:50;;;;;;;0.97;0.70;;;;;;;;;;4935770;29;20404;-71
2021/08/28 14:04:18;;;;;;;0.80;0.50;;;;;;;;;;4938761;28;20894;-72
2021/08/28 14:06:44;;;;;;;0.80;0.77;;;;;;;;;;4965608;28;20416;-72
2021/08/28 14:09:10;;;;;;;1.00;0.87;;;;;;;;;;5025534;28;20413;-72
2021/08/28 14:11:35;;;;;;;0.80;0.73;;;;;;;;;;4951949;28;20815;-71
2021/08/28 14:14:01;;;;;;;0.90;0.70;;;;;;;;;;4933778;29;20451;-72
2021/08/28 14:16:27;;;;;;;0.80;0.67;;;;;;;;;;4947285;29;20421;-72
2021/08/28 14:18:53;;;;;;;0.80;0.60;;;;;;;;;;4939902;28;20435;-72
2021/08/28 14:21:19;;;;;;;0.80;0.70;;;;;;;;;;4948395;28;20420;-73
2021/08/28 14:23:48;;;;;;;0.80;0.67;;;;;;;;;;4959535;28;20431;-72
2021/08/28 14:26:15;;;;;;;0.80;0.77;;;;;;;;;;4949452;29;20757;-73
2021/08/28 14:28:41;;;;;;;0.90;0.70;;;;;;;;;;4941739;29;20841;-72
2021/08/28 14:31:07;;;;;;;0.90;0.70;;;;;;;;;;4939665;29;20501;-72
2021/08/28 14:33:33;;;;;;;2.10;2.00;;;;;;;;;;4935751;29;20424;-72
2021/08/28 14:35:59;;;;;;;1.33;0.70;;;;;;;;;;4938721;29;20415;-72
2021/08/28 14:38:25;;;;;;;0.90;0.80;;;;;;;;;;4950573;28;20450;-72
2021/08/28 14:40:51;;;;;;;1.00;0.90;;;;;;;;;;4966516;28;20440;-72
2021/08/28 14:43:17;;;;;;;1.67;1.27;;;;;;;;;;4947299;28;20491;-72